JBU1937 TJSJ-MDSD
Flight info
| Callsign | JBU1937 |
|---|---|
| Flight time | 0h 41m |
| Altitude | 18000 |
| Route | DCT SJU RTE2 BQN B520 GOSUB GOSUB2G |
| Aircraft | A320/M-SDE3FGHIRWY/LB1 |
Departure
| Time | 2026-04-28 23:59 |
|---|---|
| Airport | Luis Munoz Marin International Airport (TJSJ) |
Arrival
| Time | 2026-04-29 00:41 |
|---|---|
| Airport | Las Américas International Airport (MDSD) |
| Time | Latitude | Longitude | Altitude | Speed | Heading |
|---|---|---|---|---|---|
| 2026-04-28 23:38 | 18.43573 | -66.00741 | 17 ft | 0 kts | 56° |
| 2026-04-28 23:49 | 18.43564 | -66.00755 | 18 ft | 4 kts | 49° |
| 2026-04-28 23:49 | 18.43544 | -66.00773 | 18 ft | 4 kts | 19° |
| 2026-04-28 23:50 | 18.43521 | -66.00776 | 17 ft | 4 kts | 355° |
| 2026-04-28 23:50 | 18.43495 | -66.00770 | 17 ft | 4 kts | 329° |
| 2026-04-28 23:50 | 18.43475 | -66.00752 | 17 ft | 4 kts | 302° |
| 2026-04-28 23:50 | 18.43466 | -66.00727 | 17 ft | 2 kts | 271° |
| 2026-04-28 23:51 | 18.43466 | -66.00725 | 17 ft | 0 kts | 270° |
| 2026-04-28 23:54 | 18.43466 | -66.00735 | 17 ft | 2 kts | 270° |
| 2026-04-28 23:54 | 18.43466 | -66.00761 | 17 ft | 5 kts | 270° |
| 2026-04-28 23:54 | 18.43466 | -66.00806 | 17 ft | 7 kts | 270° |
| 2026-04-28 23:55 | 18.43466 | -66.00868 | 17 ft | 10 kts | 270° |
| 2026-04-28 23:55 | 18.43466 | -66.00947 | 17 ft | 12 kts | 270° |
| 2026-04-28 23:55 | 18.43466 | -66.01045 | 17 ft | 15 kts | 270° |
| 2026-04-28 23:55 | 18.43466 | -66.01159 | 17 ft | 17 kts | 270° |
| 2026-04-28 23:56 | 18.43465 | -66.01287 | 17 ft | 13 kts | 268° |
| 2026-04-28 23:56 | 18.43507 | -66.01362 | 17 ft | 14 kts | 349° |
| 2026-04-28 23:56 | 18.43613 | -66.01366 | 17 ft | 16 kts | 1° |
| 2026-04-28 23:56 | 18.43732 | -66.01364 | 17 ft | 14 kts | 349° |
| 2026-04-28 23:57 | 18.43776 | -66.01430 | 17 ft | 9 kts | 267° |
| 2026-04-28 23:57 | 18.43757 | -66.01500 | 17 ft | 10 kts | 256° |
| 2026-04-28 23:57 | 18.43757 | -66.01519 | 17 ft | 0 kts | 275° |
| 2026-04-28 23:57 | 18.43758 | -66.01521 | 17 ft | 1 kts | 284° |
| 2026-04-28 23:58 | 18.43766 | -66.01534 | 19 ft | 4 kts | 304° |
| 2026-04-28 23:58 | 18.43794 | -66.01559 | 19 ft | 6 kts | 330° |
| 2026-04-28 23:58 | 18.43841 | -66.01560 | 17 ft | 8 kts | 37° |
| 2026-04-28 23:58 | 18.43863 | -66.01517 | 17 ft | 0 kts | 66° |
| 2026-04-28 23:59 | 18.43904 | -66.01418 | 17 ft | 47 kts | 66° |
| 2026-04-28 23:59 | 18.44129 | -66.00869 | 19 ft | 113 kts | 66° |
| 2026-04-28 23:59 | 18.44505 | -65.99933 | 26 ft | 162 kts | 67° |
| 2026-04-28 23:59 | 18.44908 | -65.98892 | 788 ft | 136 kts | 69° |
| 2026-04-29 00:00 | 18.45216 | -65.98031 | 1319 ft | 131 kts | 71° |
| 2026-04-29 00:00 | 18.45775 | -65.97055 | 1509 ft | 173 kts | 31° |
| 2026-04-29 00:00 | 18.46810 | -65.96789 | 2700 ft | 148 kts | 347° |
| 2026-04-29 00:00 | 18.47731 | -65.97269 | 3361 ft | 168 kts | 323° |
| 2026-04-29 00:01 | 18.48723 | -65.98215 | 3676 ft | 205 kts | 323° |
| 2026-04-29 00:01 | 18.49782 | -65.99345 | 4298 ft | 230 kts | 303° |
| 2026-04-29 00:01 | 18.50316 | -66.01009 | 4952 ft | 257 kts | 273° |
| 2026-04-29 00:01 | 18.50317 | -66.02975 | 5784 ft | 277 kts | 269° |
| 2026-04-29 00:02 | 18.50303 | -66.05035 | 6874 ft | 286 kts | 270° |
| 2026-04-29 00:02 | 18.50295 | -66.07145 | 8000 ft | 290 kts | 270° |
| 2026-04-29 00:02 | 18.50290 | -66.09292 | 9092 ft | 295 kts | 270° |
| 2026-04-29 00:02 | 18.50287 | -66.11471 | 10172 ft | 300 kts | 270° |
| 2026-04-29 00:03 | 18.50285 | -66.13762 | 10727 ft | 325 kts | 270° |
| 2026-04-29 00:03 | 18.50283 | -66.16228 | 11218 ft | 347 kts | 271° |
| 2026-04-29 00:03 | 18.50279 | -66.18801 | 12083 ft | 355 kts | 271° |
| 2026-04-29 00:03 | 18.50275 | -66.21406 | 13151 ft | 356 kts | 271° |
| 2026-04-29 00:04 | 18.50272 | -66.24029 | 14214 ft | 359 kts | 270° |
| 2026-04-29 00:04 | 18.50265 | -66.26672 | 15210 ft | 363 kts | 269° |
| 2026-04-29 00:04 | 18.50255 | -66.29321 | 16141 ft | 368 kts | 269° |
| 2026-04-29 00:04 | 18.50245 | -66.32028 | 17068 ft | 372 kts | 269° |
| 2026-04-29 00:05 | 18.50235 | -66.34793 | 17716 ft | 385 kts | 269° |
| 2026-04-29 00:05 | 18.50225 | -66.37697 | 17938 ft | 408 kts | 269° |
| 2026-04-29 00:05 | 18.50213 | -66.40780 | 17999 ft | 432 kts | 269° |
| 2026-04-29 00:05 | 18.50198 | -66.44027 | 17997 ft | 454 kts | 269° |
| 2026-04-29 00:06 | 18.50182 | -66.47369 | 18861 ft | 453 kts | 269° |
| 2026-04-29 00:06 | 18.50166 | -66.50654 | 20190 ft | 444 kts | 269° |
| 2026-04-29 00:06 | 18.50151 | -66.53878 | 21478 ft | 435 kts | 268° |
| 2026-04-29 00:06 | 18.50136 | -66.57032 | 22741 ft | 426 kts | 268° |
| 2026-04-29 00:07 | 18.50121 | -66.60121 | 23976 ft | 417 kts | 268° |
| 2026-04-29 00:07 | 18.50107 | -66.63160 | 24769 ft | 419 kts | 268° |
| 2026-04-29 00:07 | 18.50090 | -66.66325 | 24058 ft | 451 kts | 268° |
| 2026-04-29 00:07 | 18.50070 | -66.69786 | 22973 ft | 491 kts | 268° |
| 2026-04-29 00:08 | 18.50046 | -66.73364 | 23669 ft | 486 kts | 268° |
| 2026-04-29 00:08 | 18.50020 | -66.76913 | 24277 ft | 483 kts | 268° |
| 2026-04-29 00:08 | 18.49996 | -66.80453 | 24614 ft | 485 kts | 268° |
| 2026-04-29 00:08 | 18.49970 | -66.84017 | 24776 ft | 489 kts | 268° |
| 2026-04-29 00:09 | 18.49941 | -66.87589 | 25191 ft | 487 kts | 268° |
| 2026-04-29 00:09 | 18.49911 | -66.91163 | 25452 ft | 487 kts | 268° |
| 2026-04-29 00:09 | 18.49882 | -66.94677 | 25962 ft | 474 kts | 268° |
| 2026-04-29 00:09 | 18.49856 | -66.98141 | 25977 ft | 474 kts | 268° |
| 2026-04-29 00:10 | 18.49831 | -67.01639 | 25613 ft | 482 kts | 268° |
| 2026-04-29 00:10 | 18.49817 | -67.05184 | 25426 ft | 485 kts | 268° |
| 2026-04-29 00:10 | 18.49809 | -67.08680 | 24905 ft | 468 kts | 268° |
| 2026-04-29 00:10 | 18.49804 | -67.12027 | 23968 ft | 464 kts | 268° |
| 2026-04-29 00:11 | 18.49785 | -67.15468 | 23230 ft | 472 kts | 268° |
| 2026-04-29 00:11 | 18.49729 | -67.18924 | 22477 ft | 471 kts | 267° |
| 2026-04-29 00:11 | 18.49572 | -67.25829 | 21640 ft | 471 kts | 267° |
| 2026-04-29 00:12 | 18.49491 | -67.29281 | 21671 ft | 467 kts | 267° |
| 2026-04-29 00:12 | 18.49416 | -67.32600 | 21635 ft | 440 kts | 267° |
| 2026-04-29 00:12 | 18.49350 | -67.35735 | 21587 ft | 417 kts | 267° |
| 2026-04-29 00:12 | 18.49291 | -67.38716 | 21417 ft | 400 kts | 267° |
| 2026-04-29 00:13 | 18.49234 | -67.41619 | 20958 ft | 394 kts | 267° |
| 2026-04-29 00:13 | 18.49176 | -67.44487 | 20514 ft | 389 kts | 267° |
| 2026-04-29 00:13 | 18.49117 | -67.47315 | 20078 ft | 379 kts | 267° |
| 2026-04-29 00:13 | 18.49062 | -67.49992 | 19593 ft | 351 kts | 267° |
| 2026-04-29 00:14 | 18.49013 | -67.52474 | 19167 ft | 333 kts | 267° |
| 2026-04-29 00:14 | 18.48961 | -67.54934 | 18510 ft | 347 kts | 267° |
| 2026-04-29 00:14 | 18.48898 | -67.57609 | 18120 ft | 380 kts | 268° |
| 2026-04-29 00:14 | 18.48831 | -67.60483 | 18031 ft | 402 kts | 268° |
| 2026-04-29 00:15 | 18.48761 | -67.63489 | 18056 ft | 419 kts | 268° |
| 2026-04-29 00:15 | 18.48689 | -67.66608 | 18054 ft | 433 kts | 268° |
| 2026-04-29 00:15 | 18.48616 | -67.69828 | 18054 ft | 446 kts | 268° |
| 2026-04-29 00:15 | 18.48540 | -67.73106 | 18046 ft | 442 kts | 268° |
| 2026-04-29 00:16 | 18.48471 | -67.76238 | 18052 ft | 415 kts | 268° |
| 2026-04-29 00:16 | 18.48409 | -67.79202 | 18053 ft | 394 kts | 268° |
| 2026-04-29 00:16 | 18.48350 | -67.82023 | 18052 ft | 378 kts | 268° |
| 2026-04-29 00:16 | 18.48292 | -67.84782 | 18054 ft | 375 kts | 268° |
| 2026-04-29 00:17 | 18.48230 | -67.87523 | 18052 ft | 374 kts | 267° |
| 2026-04-29 00:17 | 18.48161 | -67.90266 | 18054 ft | 374 kts | 267° |
| 2026-04-29 00:17 | 18.48114 | -67.92075 | 18053 ft | 374 kts | 267° |
| 2026-04-29 00:17 | 18.48020 | -67.95726 | 18053 ft | 374 kts | 267° |
| 2026-04-29 00:18 | 18.47955 | -67.98431 | 18054 ft | 374 kts | 268° |
| 2026-04-29 00:18 | 18.47894 | -68.01205 | 18055 ft | 374 kts | 268° |
| 2026-04-29 00:18 | 18.47838 | -68.03909 | 18054 ft | 374 kts | 268° |
| 2026-04-29 00:18 | 18.47784 | -68.06647 | 18050 ft | 374 kts | 268° |
| 2026-04-29 00:19 | 18.47727 | -68.09383 | 18054 ft | 374 kts | 268° |
| 2026-04-29 00:19 | 18.47670 | -68.12121 | 18052 ft | 374 kts | 268° |
| 2026-04-29 00:19 | 18.47621 | -68.14862 | 18052 ft | 374 kts | 268° |
| 2026-04-29 00:19 | 18.47655 | -68.17600 | 18052 ft | 375 kts | 273° |
| 2026-04-29 00:20 | 18.47979 | -68.20324 | 18055 ft | 375 kts | 276° |
| 2026-04-29 00:20 | 18.48340 | -68.23046 | 18054 ft | 375 kts | 277° |
| 2026-04-29 00:20 | 18.48714 | -68.25763 | 18053 ft | 375 kts | 277° |
| 2026-04-29 00:20 | 18.49085 | -68.28419 | 18049 ft | 357 kts | 277° |
| 2026-04-29 00:21 | 18.49436 | -68.30948 | 18052 ft | 340 kts | 277° |
| 2026-04-29 00:21 | 18.49765 | -68.33356 | 18052 ft | 325 kts | 276° |
| 2026-04-29 00:21 | 18.50075 | -68.35661 | 18051 ft | 310 kts | 276° |
| 2026-04-29 00:21 | 18.50368 | -68.37864 | 18053 ft | 297 kts | 276° |
| 2026-04-29 00:22 | 18.50653 | -68.39971 | 18052 ft | 284 kts | 276° |
| 2026-04-29 00:22 | 18.50925 | -68.41981 | 18052 ft | 271 kts | 276° |
| 2026-04-29 00:22 | 18.51177 | -68.43904 | 18053 ft | 262 kts | 272° |
| 2026-04-29 00:22 | 18.51209 | -68.45199 | 18056 ft | 264 kts | 267° |
| 2026-04-29 00:23 | 18.51087 | -68.47930 | 18056 ft | 299 kts | 265° |
| 2026-04-29 00:23 | 18.50998 | -68.49450 | 18056 ft | 316 kts | 265° |
| 2026-04-29 00:23 | 18.50873 | -68.51848 | 18056 ft | 339 kts | 267° |
| 2026-04-29 00:23 | 18.50613 | -68.54374 | 18061 ft | 353 kts | 258° |
| 2026-04-29 00:24 | 18.50118 | -68.56929 | 18053 ft | 357 kts | 257° |
| 2026-04-29 00:24 | 18.49645 | -68.59463 | 18051 ft | 358 kts | 263° |
| 2026-04-29 00:24 | 18.49740 | -68.62081 | 18055 ft | 360 kts | 278° |
| 2026-04-29 00:24 | 18.50180 | -68.64719 | 18055 ft | 362 kts | 278° |
| 2026-04-29 00:25 | 18.50507 | -68.67299 | 18053 ft | 359 kts | 270° |
| 2026-04-29 00:25 | 18.50484 | -68.69929 | 18054 ft | 359 kts | 268° |
| 2026-04-29 00:25 | 18.50418 | -68.72559 | 18054 ft | 359 kts | 267° |
| 2026-04-29 00:25 | 18.50349 | -68.75192 | 18054 ft | 359 kts | 267° |
| 2026-04-29 00:26 | 18.50280 | -68.77824 | 18051 ft | 359 kts | 267° |
| 2026-04-29 00:26 | 18.50300 | -68.80453 | 18050 ft | 360 kts | 274° |
| 2026-04-29 00:26 | 18.50838 | -68.83030 | 18056 ft | 362 kts | 286° |
| 2026-04-29 00:26 | 18.51638 | -68.85545 | 18054 ft | 363 kts | 287° |
| 2026-04-29 00:27 | 18.52317 | -68.88100 | 18055 ft | 362 kts | 281° |
| 2026-04-29 00:27 | 18.52857 | -68.90689 | 18053 ft | 362 kts | 281° |
| 2026-04-29 00:27 | 18.53367 | -68.93282 | 18053 ft | 362 kts | 280° |
| 2026-04-29 00:27 | 18.53861 | -68.95881 | 18054 ft | 362 kts | 280° |
| 2026-04-29 00:28 | 18.54352 | -68.98481 | 17797 ft | 361 kts | 280° |
| 2026-04-29 00:28 | 18.54842 | -69.01062 | 17435 ft | 358 kts | 280° |
| 2026-04-29 00:28 | 18.55330 | -69.03626 | 16953 ft | 356 kts | 280° |
| 2026-04-29 00:28 | 18.55821 | -69.06177 | 16474 ft | 354 kts | 280° |
| 2026-04-29 00:29 | 18.56309 | -69.08704 | 15992 ft | 351 kts | 280° |
| 2026-04-29 00:29 | 18.56795 | -69.11215 | 15498 ft | 350 kts | 280° |
| 2026-04-29 00:29 | 18.57280 | -69.13720 | 15000 ft | 347 kts | 280° |
| 2026-04-29 00:29 | 18.57763 | -69.16209 | 14529 ft | 345 kts | 281° |
| 2026-04-29 00:30 | 18.58242 | -69.18677 | 14057 ft | 342 kts | 280° |
| 2026-04-29 00:30 | 18.58721 | -69.21146 | 13587 ft | 343 kts | 281° |
| 2026-04-29 00:30 | 18.59198 | -69.23598 | 13123 ft | 340 kts | 281° |
| 2026-04-29 00:30 | 18.59668 | -69.26031 | 12657 ft | 338 kts | 281° |
| 2026-04-29 00:31 | 18.60136 | -69.28441 | 12206 ft | 335 kts | 281° |
| 2026-04-29 00:31 | 18.60600 | -69.30842 | 11745 ft | 334 kts | 281° |
| 2026-04-29 00:31 | 18.61059 | -69.33231 | 11294 ft | 332 kts | 281° |
| 2026-04-29 00:31 | 18.61518 | -69.35624 | 10849 ft | 333 kts | 281° |
| 2026-04-29 00:32 | 18.61990 | -69.38049 | 10390 ft | 340 kts | 281° |
| 2026-04-29 00:32 | 18.62463 | -69.40470 | 10031 ft | 333 kts | 282° |
| 2026-04-29 00:32 | 18.62909 | -69.42807 | 10002 ft | 317 kts | 280° |
| 2026-04-29 00:32 | 18.62956 | -69.45055 | 9997 ft | 300 kts | 258° |
| 2026-04-29 00:33 | 18.62146 | -69.47001 | 9997 ft | 287 kts | 231° |
| 2026-04-29 00:33 | 18.60634 | -69.48327 | 10005 ft | 284 kts | 205° |
| 2026-04-29 00:33 | 18.58738 | -69.48888 | 10008 ft | 285 kts | 189° |
| 2026-04-29 00:33 | 18.56777 | -69.49202 | 10011 ft | 285 kts | 188° |
| 2026-04-29 00:34 | 18.54813 | -69.49489 | 10007 ft | 285 kts | 187° |
| 2026-04-29 00:34 | 18.52847 | -69.49772 | 10010 ft | 285 kts | 187° |
| 2026-04-29 00:34 | 18.50911 | -69.50051 | 10008 ft | 285 kts | 188° |
| 2026-04-29 00:34 | 18.48946 | -69.50336 | 10008 ft | 285 kts | 188° |
| 2026-04-29 00:35 | 18.46979 | -69.50621 | 10010 ft | 285 kts | 188° |
| 2026-04-29 00:35 | 18.45023 | -69.50905 | 9760 ft | 283 kts | 187° |
| 2026-04-29 00:35 | 18.43081 | -69.51189 | 9421 ft | 279 kts | 188° |
| 2026-04-29 00:35 | 18.41159 | -69.51484 | 8807 ft | 277 kts | 188° |
| 2026-04-29 00:36 | 18.39229 | -69.51783 | 8239 ft | 279 kts | 186° |
| 2026-04-29 00:36 | 18.37309 | -69.52071 | 7696 ft | 274 kts | 187° |
| 2026-04-29 00:36 | 18.35431 | -69.52371 | 7114 ft | 273 kts | 188° |
| 2026-04-29 00:36 | 18.33562 | -69.52673 | 6553 ft | 271 kts | 187° |
| 2026-04-29 00:37 | 18.31708 | -69.52997 | 5996 ft | 268 kts | 193° |
| 2026-04-29 00:37 | 18.30021 | -69.53804 | 5417 ft | 268 kts | 216° |
| 2026-04-29 00:37 | 18.28808 | -69.55261 | 4855 ft | 264 kts | 239° |
| 2026-04-29 00:37 | 18.27886 | -69.56931 | 4465 ft | 263 kts | 239° |
| 2026-04-29 00:38 | 18.26996 | -69.58642 | 4250 ft | 269 kts | 248° |
| 2026-04-29 00:38 | 18.26857 | -69.60555 | 4094 ft | 260 kts | 285° |
| 2026-04-29 00:38 | 18.27762 | -69.62123 | 3836 ft | 250 kts | 323° |
| 2026-04-29 00:38 | 18.29285 | -69.62946 | 3486 ft | 247 kts | 344° |
| 2026-04-29 00:39 | 18.30944 | -69.63404 | 3119 ft | 247 kts | 350° |
| 2026-04-29 00:39 | 18.32621 | -69.63792 | 2821 ft | 245 kts | 349° |
| 2026-04-29 00:39 | 18.34241 | -69.64203 | 2490 ft | 236 kts | 347° |
| 2026-04-29 00:39 | 18.35787 | -69.64649 | 1873 ft | 224 kts | 346° |
| 2026-04-29 00:40 | 18.37234 | -69.65105 | 1291 ft | 211 kts | 344° |
| 2026-04-29 00:40 | 18.38586 | -69.65557 | 848 ft | 197 kts | 344° |
| 2026-04-29 00:40 | 18.39854 | -69.65963 | 435 ft | 186 kts | 343° |
| 2026-04-29 00:40 | 18.41035 | -69.66385 | 163 ft | 171 kts | 342° |
| 2026-04-29 00:41 | 18.42079 | -69.66762 | 67 ft | 142 kts | 342° |
| 2026-04-29 00:41 | 18.42747 | -69.67006 | 65 ft | 61 kts | 341° |
| 2026-04-29 00:41 | 18.42951 | -69.67141 | 68 ft | 27 kts | 264° |
| 2026-04-29 00:41 | 18.42957 | -69.67281 | 55 ft | 15 kts | 277° |
| 2026-04-29 00:42 | 18.42959 | -69.67319 | 64 ft | 1 kts | 273° |
| 2026-04-29 00:42 | 18.42961 | -69.67328 | 64 ft | 2 kts | 277° |
| 2026-04-29 00:42 | 18.42968 | -69.67352 | 64 ft | 5 kts | 291° |
| 2026-04-29 00:42 | 18.42991 | -69.67392 | 64 ft | 8 kts | 310° |
| 2026-04-29 00:43 | 18.43044 | -69.67432 | 58 ft | 11 kts | 333° |
| 2026-04-29 00:43 | 18.43090 | -69.67487 | 63 ft | 8 kts | 290° |
| 2026-04-29 00:43 | 18.43092 | -69.67494 | 66 ft | 0 kts | 290° |
| 2026-04-29 00:43 | 18.43094 | -69.67498 | 67 ft | 1 kts | 290° |
| 2026-04-29 00:44 | 18.43101 | -69.67518 | 61 ft | 4 kts | 291° |
| 2026-04-29 00:44 | 18.43112 | -69.67548 | 68 ft | 2 kts | 291° |
| 2026-04-29 00:44 | 18.43115 | -69.67557 | 68 ft | 0 kts | 289° |